sensor_id;sensor_type;location;lat;lon;timestamp;P1;durP1;ratioP1;P2;durP2;ratioP2
53618;SDS011;68717;53.040;18.488;2023-12-20T00:00:08;13.20;;;7.90;;
53618;SDS011;68717;53.040;18.488;2023-12-20T00:00:42;12.10;;;7.80;;
53618;SDS011;68717;53.040;18.488;2023-12-20T00:01:15;11.35;;;7.68;;
53618;SDS011;68717;53.040;18.488;2023-12-20T00:01:29;11.38;;;7.70;;
53618;SDS011;68717;53.040;18.488;2023-12-20T00:01:43;11.57;;;7.53;;
53618;SDS011;68717;53.040;18.488;2023-12-20T00:01:56;11.40;;;7.45;;
53618;SDS011;68717;53.040;18.488;2023-12-20T00:02:10;12.25;;;7.78;;
53618;SDS011;68717;53.040;18.488;2023-12-20T00:02:24;13.00;;;8.00;;
53618;SDS011;68717;53.040;18.488;2023-12-20T00:02:37;12.80;;;7.97;;
53618;SDS011;68717;53.040;18.488;2023-12-20T00:02:50;12.65;;;7.78;;
53618;SDS011;68717;53.040;18.488;2023-12-20T00:03:03;13.40;;;8.00;;
53618;SDS011;68717;53.040;18.488;2023-12-20T00:03:17;13.77;;;8.27;;
53618;SDS011;68717;53.040;18.488;2023-12-20T00:03:31;12.68;;;7.85;;
53618;SDS011;68717;53.040;18.488;2023-12-20T00:03:53;13.32;;;8.10;;
53618;SDS011;68717;53.040;18.488;2023-12-20T00:04:06;13.35;;;8.10;;
53618;SDS011;68717;53.040;18.488;2023-12-20T00:04:19;12.80;;;7.97;;
53618;SDS011;68717;53.040;18.488;2023-12-20T00:04:32;12.25;;;7.75;;
53618;SDS011;68717;53.040;18.488;2023-12-20T00:04:46;11.95;;;7.60;;
53618;SDS011;68717;53.040;18.488;2023-12-20T00:04:59;11.73;;;7.68;;
53618;SDS011;68717;53.040;18.488;2023-12-20T00:05:13;11.68;;;7.65;;
53618;SDS011;68717;53.040;18.488;2023-12-20T00:05:26;12.15;;;7.63;;
53618;SDS011;68717;53.040;18.488;2023-12-20T00:05:39;11.70;;;7.38;;
53618;SDS011;68717;53.040;18.488;2023-12-20T00:05:53;11.45;;;7.40;;
53618;SDS011;68717;53.040;18.488;2023-12-20T00:06:06;10.98;;;7.20;;
53618;SDS011;68717;53.040;18.488;2023-12-20T00:06:19;11.27;;;7.20;;
53618;SDS011;68717;53.040;18.488;2023-12-20T00:06:32;10.82;;;6.90;;
53618;SDS011;68717;53.040;18.488;2023-12-20T00:06:45;11.13;;;6.93;;
53618;SDS011;68717;53.040;18.488;2023-12-20T00:06:58;11.88;;;7.32;;
53618;SDS011;68717;53.040;18.488;2023-12-20T00:07:12;12.43;;;7.50;;
53618;SDS011;68717;53.040;18.488;2023-12-20T00:07:26;12.10;;;7.22;;
53618;SDS011;68717;53.040;18.488;2023-12-20T00:07:39;11.00;;;6.90;;
53618;SDS011;68717;53.040;18.488;2023-12-20T00:07:52;10.95;;;6.95;;
53618;SDS011;68717;53.040;18.488;2023-12-20T00:08:05;11.27;;;7.35;;
53618;SDS011;68717;53.040;18.488;2023-12-20T00:08:18;11.13;;;7.18;;
53618;SDS011;68717;53.040;18.488;2023-12-20T00:08:32;10.88;;;6.95;;
53618;SDS011;68717;53.040;18.488;2023-12-20T00:08:45;11.18;;;7.22;;
53618;SDS011;68717;53.040;18.488;2023-12-20T00:09:00;11.75;;;7.32;;
53618;SDS011;68717;53.040;18.488;2023-12-20T00:09:13;11.95;;;7.30;;
53618;SDS011;68717;53.040;18.488;2023-12-20T00:09:26;11.65;;;7.35;;
53618;SDS011;68717;53.040;18.488;2023-12-20T00:09:39;11.70;;;7.47;;
53618;SDS011;68717;53.040;18.488;2023-12-20T00:09:52;11.23;;;7.28;;
53618;SDS011;68717;53.040;18.488;2023-12-20T00:10:05;10.90;;;7.00;;
53618;SDS011;68717;53.040;18.488;2023-12-20T00:10:19;11.40;;;6.97;;
53618;SDS011;68717;53.040;18.488;2023-12-20T00:10:33;12.25;;;7.40;;
53618;SDS011;68717;53.040;18.488;2023-12-20T00:10:46;12.77;;;7.43;;
53618;SDS011;68717;53.040;18.488;2023-12-20T00:10:59;11.82;;;7.18;;
53618;SDS011;68717;53.040;18.488;2023-12-20T00:11:12;11.93;;;7.30;;
53618;SDS011;68717;53.040;18.488;2023-12-20T00:11:25;12.55;;;7.60;;
53618;SDS011;68717;53.040;18.488;2023-12-20T00:11:38;12.57;;;7.85;;
53618;SDS011;68717;53.040;18.488;2023-12-20T00:11:51;12.50;;;7.80;;
53618;SDS011;68717;53.040;18.488;2023-12-20T00:12:05;12.40;;;7.50;;
53618;SDS011;68717;53.040;18.488;2023-12-20T00:12:18;12.20;;;7.47;;
53618;SDS011;68717;53.040;18.488;2023-12-20T00:12:31;12.10;;;7.43;;
53618;SDS011;68717;53.040;18.488;2023-12-20T00:12:45;11.57;;;7.38;;
53618;SDS011;68717;53.040;18.488;2023-12-20T00:12:58;11.43;;;7.20;;
53618;SDS011;68717;53.040;18.488;2023-12-20T00:13:10;11.35;;;7.18;;
53618;SDS011;68717;53.040;18.488;2023-12-20T00:13:24;11.18;;;7.30;;
53618;SDS011;68717;53.040;18.488;2023-12-20T00:13:37;11.23;;;7.18;;
53618;SDS011;68717;53.040;18.488;2023-12-20T00:13:50;10.32;;;6.80;;
53618;SDS011;68717;53.040;18.488;2023-12-20T00:14:03;10.10;;;6.50;;
53618;SDS011;68717;53.040;18.488;2023-12-20T00:14:16;10.70;;;6.80;;
53618;SDS011;68717;53.040;18.488;2023-12-20T00:14:30;10.90;;;6.80;;
53618;SDS011;68717;53.040;18.488;2023-12-20T00:14:43;10.50;;;6.80;;
53618;SDS011;68717;53.040;18.488;2023-12-20T00:14:56;10.52;;;6.90;;
53618;SDS011;68717;53.040;18.488;2023-12-20T00:15:09;10.43;;;6.82;;
53618;SDS011;68717;53.040;18.488;2023-12-20T00:15:22;10.88;;;7.00;;
53618;SDS011;68717;53.040;18.488;2023-12-20T00:15:35;11.50;;;7.30;;
53618;SDS011;68717;53.040;18.488;2023-12-20T00:15:48;11.35;;;7.38;;
53618;SDS011;68717;53.040;18.488;2023-12-20T00:16:01;10.73;;;7.00;;
53618;SDS011;68717;53.040;18.488;2023-12-20T00:16:15;10.30;;;6.82;;
53618;SDS011;68717;53.040;18.488;2023-12-20T00:16:29;10.70;;;7.10;;
53618;SDS011;68717;53.040;18.488;2023-12-20T00:16:44;10.88;;;7.15;;
53618;SDS011;68717;53.040;18.488;2023-12-20T00:16:56;10.65;;;6.93;;
53618;SDS011;68717;53.040;18.488;2023-12-20T00:17:09;10.65;;;7.00;;
53618;SDS011;68717;53.040;18.488;2023-12-20T00:17:22;10.55;;;6.97;;
53618;SDS011;68717;53.040;18.488;2023-12-20T00:17:37;10.60;;;7.00;;
53618;SDS011;68717;53.040;18.488;2023-12-20T00:17:50;11.27;;;7.03;;
53618;SDS011;68717;53.040;18.488;2023-12-20T00:18:03;11.65;;;7.07;;
53618;SDS011;68717;53.040;18.488;2023-12-20T00:18:16;11.43;;;7.05;;
53618;SDS011;68717;53.040;18.488;2023-12-20T00:18:31;11.18;;;6.93;;
53618;SDS011;68717;53.040;18.488;2023-12-20T00:18:44;10.77;;;6.80;;
53618;SDS011;68717;53.040;18.488;2023-12-20T00:18:57;11.20;;;6.93;;
53618;SDS011;68717;53.040;18.488;2023-12-20T00:19:10;10.90;;;6.88;;
53618;SDS011;68717;53.040;18.488;2023-12-20T00:19:23;10.45;;;6.88;;
53618;SDS011;68717;53.040;18.488;2023-12-20T00:19:36;10.60;;;6.75;;
53618;SDS011;68717;53.040;18.488;2023-12-20T00:19:49;11.35;;;6.95;;
53618;SDS011;68717;53.040;18.488;2023-12-20T00:20:03;11.35;;;7.00;;
53618;SDS011;68717;53.040;18.488;2023-12-20T00:20:16;10.63;;;6.80;;
53618;SDS011;68717;53.040;18.488;2023-12-20T00:20:30;11.00;;;7.10;;
53618;SDS011;68717;53.040;18.488;2023-12-20T00:20:43;10.98;;;7.13;;
53618;SDS011;68717;53.040;18.488;2023-12-20T00:20:56;10.95;;;6.82;;
53618;SDS011;68717;53.040;18.488;2023-12-20T00:21:09;10.88;;;6.60;;
53618;SDS011;68717;53.040;18.488;2023-12-20T00:21:22;10.68;;;6.60;;
53618;SDS011;68717;53.040;18.488;2023-12-20T00:21:35;10.95;;;6.82;;
53618;SDS011;68717;53.040;18.488;2023-12-20T00:21:48;10.45;;;6.82;;
53618;SDS011;68717;53.040;18.488;2023-12-20T00:22:01;11.15;;;6.85;;
53618;SDS011;68717;53.040;18.488;2023-12-20T00:22:14;10.60;;;6.60;;
53618;SDS011;68717;53.040;18.488;2023-12-20T00:22:27;10.10;;;6.55;;
53618;SDS011;68717;53.040;18.488;2023-12-20T00:22:41;9.68;;;6.50;;
53618;SDS011;68717;53.040;18.488;2023-12-20T00:22:56;9.55;;;6.28;;
53618;SDS011;68717;53.040;18.488;2023-12-20T00:23:10;9.45;;;6.20;;
53618;SDS011;68717;53.040;18.488;2023-12-20T00:23:23;9.68;;;6.43;;
53618;SDS011;68717;53.040;18.488;2023-12-20T00:23:36;10.25;;;6.75;;
53618;SDS011;68717;53.040;18.488;2023-12-20T00:23:50;9.90;;;6.63;;
53618;SDS011;68717;53.040;18.488;2023-12-20T00:24:03;10.85;;;6.68;;
53618;SDS011;68717;53.040;18.488;2023-12-20T00:24:16;12.05;;;7.20;;
53618;SDS011;68717;53.040;18.488;2023-12-20T00:24:30;12.38;;;7.35;;
53618;SDS011;68717;53.040;18.488;2023-12-20T00:24:43;11.98;;;7.07;;
53618;SDS011;68717;53.040;18.488;2023-12-20T00:24:56;10.55;;;6.78;;
53618;SDS011;68717;53.040;18.488;2023-12-20T00:25:09;9.57;;;6.40;;
53618;SDS011;68717;53.040;18.488;2023-12-20T00:25:22;10.15;;;6.40;;
53618;SDS011;68717;53.040;18.488;2023-12-20T00:25:35;10.77;;;6.40;;
53618;SDS011;68717;53.040;18.488;2023-12-20T00:25:48;10.23;;;6.30;;
53618;SDS011;68717;53.040;18.488;2023-12-20T00:26:01;10.48;;;6.38;;
53618;SDS011;68717;53.040;18.488;2023-12-20T00:26:14;9.98;;;6.30;;
53618;SDS011;68717;53.040;18.488;2023-12-20T00:26:27;9.20;;;6.20;;
53618;SDS011;68717;53.040;18.488;2023-12-20T00:26:40;9.75;;;6.53;;
53618;SDS011;68717;53.040;18.488;2023-12-20T00:26:54;10.57;;;6.97;;
53618;SDS011;68717;53.040;18.488;2023-12-20T00:27:08;10.50;;;6.95;;
53618;SDS011;68717;53.040;18.488;2023-12-20T00:27:21;10.52;;;6.60;;
53618;SDS011;68717;53.040;18.488;2023-12-20T00:27:34;11.43;;;6.43;;
53618;SDS011;68717;53.040;18.488;2023-12-20T00:27:47;11.13;;;6.53;;
53618;SDS011;68717;53.040;18.488;2023-12-20T00:28:00;10.38;;;6.70;;
53618;SDS011;68717;53.040;18.488;2023-12-20T00:28:14;10.60;;;6.88;;
53618;SDS011;68717;53.040;18.488;2023-12-20T00:28:27;10.50;;;6.78;;
53618;SDS011;68717;53.040;18.488;2023-12-20T00:28:40;10.70;;;6.38;;
53618;SDS011;68717;53.040;18.488;2023-12-20T00:28:55;9.98;;;6.07;;
53618;SDS011;68717;53.040;18.488;2023-12-20T00:29:08;9.65;;;6.30;;
53618;SDS011;68717;53.040;18.488;2023-12-20T00:29:20;10.20;;;6.50;;
53618;SDS011;68717;53.040;18.488;2023-12-20T00:29:33;11.27;;;6.60;;
53618;SDS011;68717;53.040;18.488;2023-12-20T00:29:46;11.35;;;6.40;;
53618;SDS011;68717;53.040;18.488;2023-12-20T00:30:02;11.35;;;6.35;;
53618;SDS011;68717;53.040;18.488;2023-12-20T00:30:15;10.80;;;6.10;;
53618;SDS011;68717;53.040;18.488;2023-12-20T00:30:29;9.93;;;6.20;;
53618;SDS011;68717;53.040;18.488;2023-12-20T00:30:42;9.73;;;6.22;;
53618;SDS011;68717;53.040;18.488;2023-12-20T00:30:55;9.75;;;6.32;;
53618;SDS011;68717;53.040;18.488;2023-12-20T00:31:09;9.80;;;6.40;;
53618;SDS011;68717;53.040;18.488;2023-12-20T00:31:22;9.02;;;6.15;;
53618;SDS011;68717;53.040;18.488;2023-12-20T00:31:35;9.50;;;6.28;;
53618;SDS011;68717;53.040;18.488;2023-12-20T00:31:48;10.63;;;6.72;;
53618;SDS011;68717;53.040;18.488;2023-12-20T00:32:01;10.88;;;6.57;;
53618;SDS011;68717;53.040;18.488;2023-12-20T00:32:14;10.48;;;6.32;;
53618;SDS011;68717;53.040;18.488;2023-12-20T00:32:27;10.38;;;6.38;;
53618;SDS011;68717;53.040;18.488;2023-12-20T00:32:42;10.60;;;6.78;;
53618;SDS011;68717;53.040;18.488;2023-12-20T00:32:58;10.35;;;6.68;;
53618;SDS011;68717;53.040;18.488;2023-12-20T00:33:12;10.23;;;6.68;;
53618;SDS011;68717;53.040;18.488;2023-12-20T00:33:26;10.88;;;6.55;;
53618;SDS011;68717;53.040;18.488;2023-12-20T00:33:39;11.13;;;6.47;;
53618;SDS011;68717;53.040;18.488;2023-12-20T00:33:56;10.68;;;6.53;;
53618;SDS011;68717;53.040;18.488;2023-12-20T00:34:09;10.40;;;6.43;;
53618;SDS011;68717;53.040;18.488;2023-12-20T00:34:22;11.15;;;6.75;;
53618;SDS011;68717;53.040;18.488;2023-12-20T00:34:36;10.75;;;6.78;;
53618;SDS011;68717;53.040;18.488;2023-12-20T00:34:50;10.18;;;6.72;;
53618;SDS011;68717;53.040;18.488;2023-12-20T00:35:03;10.77;;;6.78;;
53618;SDS011;68717;53.040;18.488;2023-12-20T00:35:17;10.85;;;6.50;;
53618;SDS011;68717;53.040;18.488;2023-12-20T00:35:31;10.93;;;6.38;;
53618;SDS011;68717;53.040;18.488;2023-12-20T00:35:44;10.40;;;6.47;;
53618;SDS011;68717;53.040;18.488;2023-12-20T00:35:57;10.02;;;6.45;;
53618;SDS011;68717;53.040;18.488;2023-12-20T00:36:10;10.10;;;6.20;;
53618;SDS011;68717;53.040;18.488;2023-12-20T00:36:23;9.80;;;6.10;;
53618;SDS011;68717;53.040;18.488;2023-12-20T00:36:36;9.57;;;5.90;;
53618;SDS011;68717;53.040;18.488;2023-12-20T00:36:50;10.45;;;6.05;;
53618;SDS011;68717;53.040;18.488;2023-12-20T00:37:03;11.70;;;6.47;;
53618;SDS011;68717;53.040;18.488;2023-12-20T00:37:16;11.50;;;6.50;;
53618;SDS011;68717;53.040;18.488;2023-12-20T00:37:29;11.68;;;6.28;;
53618;SDS011;68717;53.040;18.488;2023-12-20T00:37:42;11.25;;;5.97;;
53618;SDS011;68717;53.040;18.488;2023-12-20T00:37:56;10.32;;;5.78;;
53618;SDS011;68717;53.040;18.488;2023-12-20T00:38:10;9.82;;;6.07;;
53618;SDS011;68717;53.040;18.488;2023-12-20T00:38:24;9.40;;;6.25;;
53618;SDS011;68717;53.040;18.488;2023-12-20T00:38:38;9.90;;;6.35;;
53618;SDS011;68717;53.040;18.488;2023-12-20T00:38:50;9.93;;;6.22;;
53618;SDS011;68717;53.040;18.488;2023-12-20T00:39:04;10.18;;;6.28;;
53618;SDS011;68717;53.040;18.488;2023-12-20T00:39:17;10.60;;;6.40;;
53618;SDS011;68717;53.040;18.488;2023-12-20T00:39:30;10.85;;;6.47;;
53618;SDS011;68717;53.040;18.488;2023-12-20T00:39:42;10.05;;;6.30;;
53618;SDS011;68717;53.040;18.488;2023-12-20T00:39:56;10.25;;;6.40;;
53618;SDS011;68717;53.040;18.488;2023-12-20T00:40:09;10.55;;;6.68;;
53618;SDS011;68717;53.040;18.488;2023-12-20T00:40:23;10.38;;;6.60;;
53618;SDS011;68717;53.040;18.488;2023-12-20T00:40:37;9.80;;;6.38;;
53618;SDS011;68717;53.040;18.488;2023-12-20T00:40:50;9.57;;;6.28;;
53618;SDS011;68717;53.040;18.488;2023-12-20T00:41:03;12.25;;;6.25;;
53618;SDS011;68717;53.040;18.488;2023-12-20T00:41:16;15.13;;;6.40;;
53618;SDS011;68717;53.040;18.488;2023-12-20T00:41:29;14.43;;;6.35;;
53618;SDS011;68717;53.040;18.488;2023-12-20T00:41:42;10.80;;;6.57;;
53618;SDS011;68717;53.040;18.488;2023-12-20T00:41:56;10.35;;;6.55;;
53618;SDS011;68717;53.040;18.488;2023-12-20T00:42:09;10.05;;;6.47;;
53618;SDS011;68717;53.040;18.488;2023-12-20T00:42:22;9.98;;;6.50;;
53618;SDS011;68717;53.040;18.488;2023-12-20T00:42:35;11.00;;;6.80;;
53618;SDS011;68717;53.040;18.488;2023-12-20T00:42:49;10.82;;;6.68;;
53618;SDS011;68717;53.040;18.488;2023-12-20T00:43:02;10.00;;;6.22;;
53618;SDS011;68717;53.040;18.488;2023-12-20T00:43:15;10.02;;;6.13;;
53618;SDS011;68717;53.040;18.488;2023-12-20T00:43:28;10.45;;;6.30;;
53618;SDS011;68717;53.040;18.488;2023-12-20T00:43:41;10.02;;;6.50;;
53618;SDS011;68717;53.040;18.488;2023-12-20T00:43:54;10.27;;;6.70;;
53618;SDS011;68717;53.040;18.488;2023-12-20T00:44:07;11.20;;;6.70;;
53618;SDS011;68717;53.040;18.488;2023-12-20T00:44:21;10.88;;;6.57;;
53618;SDS011;68717;53.040;18.488;2023-12-20T00:44:34;9.68;;;6.28;;
53618;SDS011;68717;53.040;18.488;2023-12-20T00:44:47;9.60;;;6.20;;
53618;SDS011;68717;53.040;18.488;2023-12-20T00:45:00;9.80;;;6.18;;
53618;SDS011;68717;53.040;18.488;2023-12-20T00:45:13;9.98;;;6.10;;
53618;SDS011;68717;53.040;18.488;2023-12-20T00:45:26;9.82;;;6.00;;
53618;SDS011;68717;53.040;18.488;2023-12-20T00:45:39;10.30;;;6.13;;
53618;SDS011;68717;53.040;18.488;2023-12-20T00:45:53;10.13;;;6.18;;
53618;SDS011;68717;53.040;18.488;2023-12-20T00:46:08;10.07;;;6.47;;
53618;SDS011;68717;53.040;18.488;2023-12-20T00:46:21;10.07;;;6.25;;
53618;SDS011;68717;53.040;18.488;2023-12-20T00:46:34;9.45;;;5.82;;
53618;SDS011;68717;53.040;18.488;2023-12-20T00:46:47;9.65;;;5.85;;
53618;SDS011;68717;53.040;18.488;2023-12-20T00:47:00;9.40;;;5.88;;
53618;SDS011;68717;53.040;18.488;2023-12-20T00:47:13;9.60;;;5.90;;
53618;SDS011;68717;53.040;18.488;2023-12-20T00:47:26;9.43;;;5.88;;
53618;SDS011;68717;53.040;18.488;2023-12-20T00:47:39;9.35;;;5.90;;
53618;SDS011;68717;53.040;18.488;2023-12-20T00:47:53;9.18;;;5.80;;
53618;SDS011;68717;53.040;18.488;2023-12-20T00:48:06;8.95;;;5.90;;
53618;SDS011;68717;53.040;18.488;2023-12-20T00:48:21;8.92;;;6.02;;
53618;SDS011;68717;53.040;18.488;2023-12-20T00:48:34;9.38;;;6.05;;
53618;SDS011;68717;53.040;18.488;2023-12-20T00:48:47;9.38;;;5.70;;
53618;SDS011;68717;53.040;18.488;2023-12-20T00:49:00;9.38;;;5.40;;
53618;SDS011;68717;53.040;18.488;2023-12-20T00:49:13;10.40;;;5.68;;
53618;SDS011;68717;53.040;18.488;2023-12-20T00:49:26;10.23;;;5.88;;
53618;SDS011;68717;53.040;18.488;2023-12-20T00:49:39;9.60;;;5.65;;
53618;SDS011;68717;53.040;18.488;2023-12-20T00:49:52;9.20;;;5.60;;
53618;SDS011;68717;53.040;18.488;2023-12-20T00:50:06;8.70;;;5.45;;
53618;SDS011;68717;53.040;18.488;2023-12-20T00:50:20;8.35;;;5.53;;
53618;SDS011;68717;53.040;18.488;2023-12-20T00:50:36;9.85;;;5.75;;
53618;SDS011;68717;53.040;18.488;2023-12-20T00:50:49;10.82;;;5.93;;
53618;SDS011;68717;53.040;18.488;2023-12-20T00:51:02;9.90;;;6.03;;
53618;SDS011;68717;53.040;18.488;2023-12-20T00:51:16;8.82;;;5.80;;
53618;SDS011;68717;53.040;18.488;2023-12-20T00:51:28;9.00;;;5.82;;
53618;SDS011;68717;53.040;18.488;2023-12-20T00:51:41;9.57;;;5.78;;
53618;SDS011;68717;53.040;18.488;2023-12-20T00:51:54;9.85;;;5.68;;
53618;SDS011;68717;53.040;18.488;2023-12-20T00:52:08;10.23;;;6.00;;
53618;SDS011;68717;53.040;18.488;2023-12-20T00:52:21;10.02;;;6.10;;
53618;SDS011;68717;53.040;18.488;2023-12-20T00:52:35;9.77;;;5.85;;
53618;SDS011;68717;53.040;18.488;2023-12-20T00:52:48;9.95;;;5.97;;
53618;SDS011;68717;53.040;18.488;2023-12-20T00:53:01;9.32;;;5.90;;
53618;SDS011;68717;53.040;18.488;2023-12-20T00:53:14;8.68;;;5.60;;
53618;SDS011;68717;53.040;18.488;2023-12-20T00:53:27;8.70;;;5.65;;
53618;SDS011;68717;53.040;18.488;2023-12-20T00:53:40;9.90;;;6.22;;
53618;SDS011;68717;53.040;18.488;2023-12-20T00:53:54;10.15;;;6.40;;
53618;SDS011;68717;53.040;18.488;2023-12-20T00:54:07;10.18;;;6.65;;
53618;SDS011;68717;53.040;18.488;2023-12-20T00:54:21;10.18;;;6.85;;
53618;SDS011;68717;53.040;18.488;2023-12-20T00:54:34;10.07;;;6.82;;
53618;SDS011;68717;53.040;18.488;2023-12-20T00:54:47;10.63;;;6.75;;
53618;SDS011;68717;53.040;18.488;2023-12-20T00:55:01;10.93;;;6.55;;
53618;SDS011;68717;53.040;18.488;2023-12-20T00:55:14;11.20;;;6.72;;
53618;SDS011;68717;53.040;18.488;2023-12-20T00:55:27;10.55;;;6.80;;
53618;SDS011;68717;53.040;18.488;2023-12-20T00:55:41;11.40;;;6.78;;
53618;SDS011;68717;53.040;18.488;2023-12-20T00:55:53;11.68;;;6.80;;
53618;SDS011;68717;53.040;18.488;2023-12-20T00:56:07;12.18;;;6.68;;
53618;SDS011;68717;53.040;18.488;2023-12-20T00:56:20;10.32;;;6.10;;
53618;SDS011;68717;53.040;18.488;2023-12-20T00:56:33;10.15;;;6.15;;
53618;SDS011;68717;53.040;18.488;2023-12-20T00:56:47;10.02;;;5.80;;
53618;SDS011;68717;53.040;18.488;2023-12-20T00:57:01;9.50;;;5.68;;
53618;SDS011;68717;53.040;18.488;2023-12-20T00:57:14;9.30;;;5.60;;
53618;SDS011;68717;53.040;18.488;2023-12-20T00:57:27;9.77;;;5.70;;
53618;SDS011;68717;53.040;18.488;2023-12-20T00:57:40;10.07;;;5.90;;
53618;SDS011;68717;53.040;18.488;2023-12-20T00:57:53;9.55;;;5.78;;
53618;SDS011;68717;53.040;18.488;2023-12-20T00:58:06;9.70;;;5.82;;
53618;SDS011;68717;53.040;18.488;2023-12-20T00:58:19;10.05;;;5.75;;
53618;SDS011;68717;53.040;18.488;2023-12-20T00:58:32;9.48;;;5.70;;
53618;SDS011;68717;53.040;18.488;2023-12-20T00:58:45;8.65;;;5.50;;
53618;SDS011;68717;53.040;18.488;2023-12-20T00:58:58;8.30;;;5.65;;
53618;SDS011;68717;53.040;18.488;2023-12-20T00:59:11;8.68;;;5.72;;
53618;SDS011;68717;53.040;18.488;2023-12-20T00:59:25;9.27;;;5.80;;
53618;SDS011;68717;53.040;18.488;2023-12-20T00:59:38;9.40;;;5.90;;
53618;SDS011;68717;53.040;18.488;2023-12-20T00:59:51;9.57;;;5.80;;
53618;SDS011;68717;53.040;18.488;2023-12-20T01:00:04;9.73;;;5.80;;
53618;SDS011;68717;53.040;18.488;2023-12-20T01:00:18;9.38;;;5.70;;
53618;SDS011;68717;53.040;18.488;2023-12-20T01:00:32;9.00;;;5.50;;
53618;SDS011;68717;53.040;18.488;2023-12-20T01:00:45;9.38;;;5.43;;
53618;SDS011;68717;53.040;18.488;2023-12-20T01:00:59;9.63;;;5.38;;
53618;SDS011;68717;53.040;18.488;2023-12-20T01:01:13;9.20;;;5.38;;
53618;SDS011;68717;53.040;18.488;2023-12-20T01:01:26;9.05;;;5.32;;
53618;SDS011;68717;53.040;18.488;2023-12-20T01:01:39;9.18;;;5.50;;
53618;SDS011;68717;53.040;18.488;2023-12-20T01:01:52;9.20;;;5.50;;
53618;SDS011;68717;53.040;18.488;2023-12-20T01:02:05;9.60;;;5.60;;
53618;SDS011;68717;53.040;18.488;2023-12-20T01:02:18;10.07;;;5.80;;
53618;SDS011;68717;53.040;18.488;2023-12-20T01:02:31;9.73;;;5.80;;
53618;SDS011;68717;53.040;18.488;2023-12-20T01:02:44;8.98;;;5.53;;
53618;SDS011;68717;53.040;18.488;2023-12-20T01:03:00;9.88;;;5.53;;
53618;SDS011;68717;53.040;18.488;2023-12-20T01:03:14;9.95;;;5.53;;
53618;SDS011;68717;53.040;18.488;2023-12-20T01:03:28;8.85;;;5.53;;
53618;SDS011;68717;53.040;18.488;2023-12-20T01:03:42;9.35;;;5.50;;
53618;SDS011;68717;53.040;18.488;2023-12-20T01:03:55;10.38;;;5.50;;
53618;SDS011;68717;53.040;18.488;2023-12-20T01:04:08;10.63;;;5.60;;
53618;SDS011;68717;53.040;18.488;2023-12-20T01:04:21;9.77;;;5.60;;
53618;SDS011;68717;53.040;18.488;2023-12-20T01:04:34;8.85;;;5.40;;
53618;SDS011;68717;53.040;18.488;2023-12-20T01:04:47;8.95;;;5.40;;
53618;SDS011;68717;53.040;18.488;2023-12-20T01:05:00;9.38;;;5.68;;
53618;SDS011;68717;53.040;18.488;2023-12-20T01:05:13;9.30;;;5.72;;
53618;SDS011;68717;53.040;18.488;2023-12-20T01:05:26;9.10;;;5.57;;
53618;SDS011;68717;53.040;18.488;2023-12-20T01:05:41;9.43;;;5.45;;
53618;SDS011;68717;53.040;18.488;2023-12-20T01:05:54;9.25;;;5.40;;
53618;SDS011;68717;53.040;18.488;2023-12-20T01:06:06;9.77;;;5.53;;
53618;SDS011;68717;53.040;18.488;2023-12-20T01:06:19;8.75;;;5.28;;
53618;SDS011;68717;53.040;18.488;2023-12-20T01:06:32;8.80;;;5.25;;
53618;SDS011;68717;53.040;18.488;2023-12-20T01:06:45;8.70;;;5.32;;
53618;SDS011;68717;53.040;18.488;2023-12-20T01:06:58;8.75;;;5.35;;
53618;SDS011;68717;53.040;18.488;2023-12-20T01:07:11;9.13;;;5.28;;
53618;SDS011;68717;53.040;18.488;2023-12-20T01:07:24;8.95;;;5.03;;
53618;SDS011;68717;53.040;18.488;2023-12-20T01:07:37;8.05;;;5.00;;
53618;SDS011;68717;53.040;18.488;2023-12-20T01:07:51;8.25;;;5.20;;
53618;SDS011;68717;53.040;18.488;2023-12-20T01:08:05;9.20;;;5.60;;
53618;SDS011;68717;53.040;18.488;2023-12-20T01:08:18;9.55;;;5.78;;
53618;SDS011;68717;53.040;18.488;2023-12-20T01:08:31;9.35;;;5.60;;
53618;SDS011;68717;53.040;18.488;2023-12-20T01:08:44;9.40;;;5.43;;
53618;SDS011;68717;53.040;18.488;2023-12-20T01:08:57;9.43;;;5.32;;
53618;SDS011;68717;53.040;18.488;2023-12-20T01:09:10;9.15;;;5.43;;
53618;SDS011;68717;53.040;18.488;2023-12-20T01:09:24;10.05;;;5.40;;
53618;SDS011;68717;53.040;18.488;2023-12-20T01:09:38;10.20;;;5.30;;
53618;SDS011;68717;53.040;18.488;2023-12-20T01:09:51;9.05;;;5.15;;
53618;SDS011;68717;53.040;18.488;2023-12-20T01:10:04;9.40;;;5.20;;
53618;SDS011;68717;53.040;18.488;2023-12-20T01:10:18;10.50;;;5.32;;
53618;SDS011;68717;53.040;18.488;2023-12-20T01:10:31;10.45;;;5.40;;
53618;SDS011;68717;53.040;18.488;2023-12-20T01:10:44;10.15;;;5.32;;
53618;SDS011;68717;53.040;18.488;2023-12-20T01:10:59;9.45;;;5.25;;
53618;SDS011;68717;53.040;18.488;2023-12-20T01:11:12;9.40;;;5.43;;
53618;SDS011;68717;53.040;18.488;2023-12-20T01:11:26;9.15;;;5.60;;
53618;SDS011;68717;53.040;18.488;2023-12-20T01:11:38;8.43;;;5.30;;
53618;SDS011;68717;53.040;18.488;2023-12-20T01:11:51;8.70;;;5.32;;
53618;SDS011;68717;53.040;18.488;2023-12-20T01:12:05;9.68;;;5.70;;
53618;SDS011;68717;53.040;18.488;2023-12-20T01:12:18;9.15;;;5.55;;
53618;SDS011;68717;53.040;18.488;2023-12-20T01:12:32;8.48;;;5.30;;
53618;SDS011;68717;53.040;18.488;2023-12-20T01:12:45;8.95;;;5.28;;
53618;SDS011;68717;53.040;18.488;2023-12-20T01:12:58;9.68;;;5.30;;
53618;SDS011;68717;53.040;18.488;2023-12-20T01:13:12;10.07;;;5.05;;
53618;SDS011;68717;53.040;18.488;2023-12-20T01:13:25;10.15;;;4.85;;
53618;SDS011;68717;53.040;18.488;2023-12-20T01:13:38;9.30;;;5.03;;
53618;SDS011;68717;53.040;18.488;2023-12-20T01:13:51;11.68;;;5.50;;
53618;SDS011;68717;53.040;18.488;2023-12-20T01:14:04;11.25;;;5.45;;
53618;SDS011;68717;53.040;18.488;2023-12-20T01:14:17;9.85;;;5.50;;
53618;SDS011;68717;53.040;18.488;2023-12-20T01:14:30;9.02;;;5.30;;
53618;SDS011;68717;53.040;18.488;2023-12-20T01:14:43;8.82;;;5.18;;
53618;SDS011;68717;53.040;18.488;2023-12-20T01:14:56;8.43;;;5.10;;
53618;SDS011;68717;53.040;18.488;2023-12-20T01:15:10;9.80;;;5.40;;
53618;SDS011;68717;53.040;18.488;2023-12-20T01:15:25;10.40;;;5.60;;
53618;SDS011;68717;53.040;18.488;2023-12-20T01:15:37;9.27;;;5.60;;
53618;SDS011;68717;53.040;18.488;2023-12-20T01:15:51;9.77;;;5.93;;
53618;SDS011;68717;53.040;18.488;2023-12-20T01:16:04;9.65;;;6.13;;
53618;SDS011;68717;53.040;18.488;2023-12-20T01:16:20;9.68;;;6.40;;
53618;SDS011;68717;53.040;18.488;2023-12-20T01:16:33;10.32;;;6.40;;
53618;SDS011;68717;53.040;18.488;2023-12-20T01:16:46;10.30;;;5.97;;
53618;SDS011;68717;53.040;18.488;2023-12-20T01:16:59;10.27;;;5.80;;
53618;SDS011;68717;53.040;18.488;2023-12-20T01:17:12;9.63;;;5.93;;
53618;SDS011;68717;53.040;18.488;2023-12-20T01:17:25;9.88;;;6.10;;
53618;SDS011;68717;53.040;18.488;2023-12-20T01:17:39;10.15;;;6.05;;
53618;SDS011;68717;53.040;18.488;2023-12-20T01:17:52;9.90;;;5.82;;
53618;SDS011;68717;53.040;18.488;2023-12-20T01:18:07;9.18;;;5.53;;
53618;SDS011;68717;53.040;18.488;2023-12-20T01:18:20;10.55;;;5.50;;
53618;SDS011;68717;53.040;18.488;2023-12-20T01:18:33;10.75;;;5.47;;
53618;SDS011;68717;53.040;18.488;2023-12-20T01:18:46;9.05;;;5.45;;
53618;SDS011;68717;53.040;18.488;2023-12-20T01:18:59;8.77;;;5.45;;
53618;SDS011;68717;53.040;18.488;2023-12-20T01:19:12;8.57;;;5.20;;